Time;durP1;ratioP1;P1;durP2;ratioP2;P2;SDS_P1;SDS_P2;PMS_P1;PMS_P2;Temp;Humidity;BMP_temperature;BMP_pressure;BME280_temperature;BME280_humidity;BME280_pressure;Samples;Min_cycle;Max_cycle;Signal;HPM_P1;HPM_P2
2020/12/29 00:00:26;;;;;;;2.97;1.92;;;2.20;99.90;;;;;;4973363;28;20082;-81
2020/12/29 00:02:52;;;;;;;2.75;2.15;;;2.20;99.90;;;;;;4973103;28;20023;-81
2020/12/29 00:05:17;;;;;;;4.00;2.65;;;2.20;99.90;;;;;;4973043;28;20026;-82
2020/12/29 00:07:53;;;;;;;3.90;2.30;;;2.30;99.90;;;;;;4974345;28;20038;-82
2020/12/29 00:10:21;;;;;;;3.78;2.28;;;2.20;99.90;;;;;;4974602;28;20031;-82
2020/12/29 00:12:47;;;;;;;2.50;2.08;;;2.30;99.90;;;;;;4973019;28;20483;-82
2020/12/29 00:15:13;;;;;;;3.80;1.88;;;2.40;99.90;;;;;;4972920;28;20118;-83
2020/12/29 00:17:38;;;;;;;2.53;1.77;;;2.30;99.90;;;;;;4972983;28;20113;-82
2020/12/29 00:20:04;;;;;;;1.95;1.75;;;2.40;99.90;;;;;;4973009;28;20031;-83
2020/12/29 00:22:31;;;;;;;1.50;1.40;;;2.40;99.90;;;;;;4975698;28;20120;-82
2020/12/29 00:24:56;;;;;;;2.28;1.77;;;2.40;99.90;;;;;;4976404;28;20027;-83
2020/12/29 00:27:22;;;;;;;5.30;1.63;;;2.30;99.90;;;;;;4976393;28;20170;-82
2020/12/29 00:29:48;;;;;;;4.10;2.60;;;2.20;99.90;;;;;;4977432;28;20109;-82
2020/12/29 00:32:13;;;;;;;4.28;2.42;;;2.30;99.90;;;;;;4977545;28;20027;-83
2020/12/29 00:34:42;;;;;;;4.18;1.98;;;2.50;99.90;;;;;;4976190;28;20039;-83
2020/12/29 00:37:07;;;;;;;5.45;2.10;;;2.40;99.90;;;;;;4977721;28;20426;-81
2020/12/29 00:39:33;;;;;;;2.28;1.90;;;2.30;99.90;;;;;;4976175;28;20018;-84
2020/12/29 00:41:59;;;;;;;2.70;2.10;;;2.30;99.90;;;;;;4976069;28;20078;-83
2020/12/29 00:44:25;;;;;;;2.78;2.20;;;2.30;99.90;;;;;;4976101;28;20426;-83
2020/12/29 00:46:51;;;;;;;4.93;2.05;;;2.50;99.90;;;;;;4975990;28;20033;-82
2020/12/29 00:49:17;;;;;;;2.83;2.20;;;2.70;99.90;;;;;;4975965;28;20058;-82
2020/12/29 00:51:43;;;;;;;4.22;1.75;;;2.60;99.90;;;;;;4975887;28;20513;-83
2020/12/29 00:54:08;;;;;;;3.25;2.42;;;2.50;99.90;;;;;;4975828;28;20101;-82
2020/12/29 00:56:34;;;;;;;3.95;2.33;;;2.50;99.90;;;;;;4977126;28;20019;-82
2020/12/29 00:58:59;;;;;;;2.85;2.08;;;2.50;99.90;;;;;;4975755;28;20058;-81
2020/12/29 01:01:25;;;;;;;2.10;1.90;;;2.50;99.90;;;;;;4975754;28;20034;-80
2020/12/29 01:03:51;;;;;;;3.22;2.30;;;2.40;99.90;;;;;;4975675;28;20031;-81
2020/12/29 01:06:25;;;;;;;2.58;2.10;;;2.50;99.90;;;;;;4975616;28;20035;-81
2020/12/29 01:08:50;;;;;;;3.08;2.30;;;2.20;99.90;;;;;;4976962;28;20027;-81
2020/12/29 01:11:17;;;;;;;4.65;2.60;;;2.10;99.90;;;;;;4976809;28;20034;-82
2020/12/29 01:13:44;;;;;;;3.33;2.60;;;2.10;99.90;;;;;;4975466;28;20031;-83
2020/12/29 01:16:10;;;;;;;4.00;2.92;;;1.90;99.90;;;;;;4975471;28;20030;-82
2020/12/29 01:18:37;;;;;;;3.25;2.67;;;2.10;99.90;;;;;;4975383;28;20387;-82
2020/12/29 01:21:03;;;;;;;3.83;3.10;;;1.90;99.90;;;;;;4975425;28;20493;-82
2020/12/29 01:23:29;;;;;;;3.60;3.00;;;2.00;99.90;;;;;;4975328;28;20027;-81
2020/12/29 01:25:55;;;;;;;3.30;3.00;;;1.90;99.90;;;;;;4976590;28;20093;-83
2020/12/29 01:28:20;;;;;;;2.92;2.63;;;2.10;99.90;;;;;;4975053;28;20043;-81
2020/12/29 01:30:46;;;;;;;6.53;2.53;;;2.00;99.90;;;;;;4975217;28;20047;-81
2020/12/29 01:33:12;;;;;;;3.30;2.80;;;2.00;99.90;;;;;;4975087;28;20027;-81
2020/12/29 01:35:37;;;;;;;3.03;2.63;;;2.00;99.90;;;;;;4976390;28;20470;-82
2020/12/29 01:38:03;;;;;;;4.18;2.72;;;2.10;99.90;;;;;;4975061;28;20490;-83
2020/12/29 01:40:30;;;;;;;4.38;2.72;;;2.10;99.90;;;;;;4975015;28;20026;-81
2020/12/29 01:42:55;;;;;;;3.08;2.40;;;2.10;99.90;;;;;;4975021;28;20490;-80
2020/12/29 01:45:23;;;;;;;3.20;2.55;;;2.30;99.90;;;;;;4974963;28;20158;-82
2020/12/29 01:47:50;;;;;;;3.17;2.60;;;2.10;99.90;;;;;;4974894;28;20473;-81
2020/12/29 01:50:18;;;;;;;4.07;2.35;;;2.10;99.90;;;;;;4976128;28;20077;-81
2020/12/29 01:52:47;;;;;;;2.47;2.28;;;2.30;99.90;;;;;;4974840;28;20542;-82
2020/12/29 01:55:13;;;;;;;2.17;1.90;;;2.30;99.90;;;;;;4974676;28;20590;-83
2020/12/29 01:57:39;;;;;;;3.17;2.20;;;2.20;99.90;;;;;;4974687;28;20118;-81
2020/12/29 02:00:07;;;;;;;2.67;2.10;;;2.20;99.90;;;;;;4975966;28;20026;-81
2020/12/29 02:02:33;;;;;;;2.53;2.03;;;2.10;99.90;;;;;;4975858;28;20097;-81
2020/12/29 02:04:59;;;;;;;4.00;2.08;;;2.10;99.90;;;;;;4974553;28;20073;-82
2020/12/29 02:07:25;;;;;;;2.47;2.00;;;2.20;99.90;;;;;;4974521;28;20532;-81
2020/12/29 02:09:51;;;;;;;2.58;1.90;;;2.20;99.90;;;;;;4975754;28;20041;-81
2020/12/29 02:12:21;;;;;;;3.15;2.20;;;2.20;99.90;;;;;;4974478;28;20030;-82
2020/12/29 02:14:47;;;;;;;2.72;2.05;;;2.20;99.90;;;;;;4974374;28;20484;-83
2020/12/29 02:17:13;;;;;;;3.17;1.77;;;2.40;99.90;;;;;;4974327;28;20027;-81
2020/12/29 02:19:38;;;;;;;3.35;1.80;;;2.20;99.90;;;;;;4975553;28;20027;-80
2020/12/29 02:22:04;;;;;;;2.90;2.00;;;2.20;99.90;;;;;;4974250;28;20450;-80
2020/12/29 02:24:30;;;;;;;2.63;1.83;;;2.30;99.90;;;;;;4974187;28;20031;-80
2020/12/29 02:26:55;;;;;;;2.42;1.92;;;2.30;99.90;;;;;;4975449;28;20054;-82
2020/12/29 02:29:21;;;;;;;3.15;1.83;;;2.20;99.90;;;;;;4973976;28;20550;-81
2020/12/29 02:31:47;;;;;;;3.05;2.08;;;2.30;99.90;;;;;;4974110;28;20062;-80
2020/12/29 02:34:12;;;;;;;5.43;2.08;;;2.20;99.90;;;;;;4973970;28;20027;-81
2020/12/29 02:36:38;;;;;;;2.40;1.90;;;2.30;99.90;;;;;;4975289;28;20026;-83
2020/12/29 02:39:03;;;;;;;2.22;1.67;;;2.30;99.90;;;;;;4973997;28;20023;-81
2020/12/29 02:41:29;;;;;;;2.92;1.70;;;2.40;99.90;;;;;;4975189;28;20026;-81
2020/12/29 02:43:55;;;;;;;2.58;1.83;;;2.40;99.90;;;;;;4973553;28;20500;-81
2020/12/29 02:46:20;;;;;;;1.70;1.58;;;2.40;99.90;;;;;;4973868;28;20474;-82
2020/12/29 02:48:46;;;;;;;2.00;1.80;;;2.30;99.90;;;;;;4973812;28;20031;-81
2020/12/29 02:51:15;;;;;;;1.67;1.48;;;2.40;99.90;;;;;;4973853;28;20027;-81
2020/12/29 02:53:41;;;;;;;2.33;1.60;;;2.30;99.90;;;;;;4973673;28;20026;-80
2020/12/29 02:56:07;;;;;;;2.80;1.98;;;2.40;99.90;;;;;;4973669;28;20045;-81
2020/12/29 02:58:32;;;;;;;1.73;1.60;;;2.30;99.90;;;;;;4975193;28;20023;-82
2020/12/29 03:00:58;;;;;;;4.60;1.85;;;2.30;99.90;;;;;;4975197;28;20474;-81
2020/12/29 03:03:23;;;;;;;2.72;1.48;;;2.30;99.90;;;;;;4973598;28;20026;-82
2020/12/29 03:05:49;;;;;;;2.35;1.60;;;2.20;99.90;;;;;;4973607;28;20030;-82
2020/12/29 03:08:15;;;;;;;2.15;1.67;;;2.10;99.90;;;;;;4973568;28;20064;-82
2020/12/29 03:10:41;;;;;;;1.75;1.60;;;2.20;99.90;;;;;;4973600;28;20077;-81
2020/12/29 03:13:06;;;;;;;1.75;1.40;;;2.10;99.90;;;;;;4974796;28;20031;-80
2020/12/29 03:15:32;;;;;;;1.95;1.50;;;2.20;99.90;;;;;;4973409;28;20035;-81
2020/12/29 03:17:58;;;;;;;1.85;1.40;;;2.20;99.90;;;;;;4973517;28;20155;-81
2020/12/29 03:20:23;;;;;;;1.75;1.65;;;2.00;99.90;;;;;;4973426;28;20030;-81
2020/12/29 03:22:49;;;;;;;1.65;1.55;;;2.10;99.90;;;;;;4973416;28;20335;-80
2020/12/29 03:25:15;;;;;;;1.50;1.40;;;2.10;99.90;;;;;;4973442;28;20058;-81
2020/12/29 03:27:40;;;;;;;1.95;1.20;;;2.20;99.90;;;;;;4974468;28;20070;-80
2020/12/29 03:30:06;;;;;;;2.20;1.58;;;2.10;99.90;;;;;;4973380;28;20037;-80
2020/12/29 03:32:32;;;;;;;1.90;1.40;;;2.10;99.90;;;;;;4973340;28;20031;-81
2020/12/29 03:34:57;;;;;;;1.45;1.35;;;2.20;99.90;;;;;;4974803;28;20027;-82
2020/12/29 03:37:23;;;;;;;1.30;1.05;;;2.20;99.90;;;;;;4973346;28;20062;-81
2020/12/29 03:39:51;;;;;;;1.02;0.90;;;2.20;99.90;;;;;;4973300;28;20034;-82
2020/12/29 03:42:17;;;;;;;1.10;0.90;;;2.20;99.90;;;;;;4974506;28;20022;-82
2020/12/29 03:44:42;;;;;;;1.55;1.40;;;2.10;99.90;;;;;;4973252;28;20035;-81
2020/12/29 03:47:08;;;;;;;1.35;0.80;;;2.20;99.90;;;;;;4973283;28;20031;-83
2020/12/29 03:49:34;;;;;;;3.20;1.30;;;2.20;99.90;;;;;;4974511;28;20109;-81
2020/12/29 03:51:59;;;;;;;2.13;1.40;;;2.20;99.90;;;;;;4974435;28;20089;-81
2020/12/29 03:54:25;;;;;;;1.70;1.05;;;2.20;99.90;;;;;;4973070;28;20023;-82
2020/12/29 03:56:51;;;;;;;1.08;0.90;;;2.20;99.90;;;;;;4976359;28;20078;-82
2020/12/29 03:59:16;;;;;;;3.08;1.23;;;2.20;99.90;;;;;;4976909;28;20114;-82
2020/12/29 04:01:42;;;;;;;1.90;0.80;;;2.30;99.90;;;;;;4978092;28;20023;-83
2020/12/29 04:04:09;;;;;;;3.17;1.30;;;2.30;99.90;;;;;;4976801;28;20081;-82
2020/12/29 04:06:35;;;;;;;3.40;0.85;;;2.30;99.90;;;;;;4977996;28;20033;-84
2020/12/29 04:09:01;;;;;;;2.05;0.80;;;2.40;99.90;;;;;;4976752;28;20532;-83
2020/12/29 04:11:27;;;;;;;2.75;1.10;;;2.40;99.90;;;;;;4976755;28;20394;-81
2020/12/29 04:13:53;;;;;;;3.80;1.00;;;2.40;99.90;;;;;;4976530;28;20023;-81
2020/12/29 04:16:23;;;;;;;3.13;0.90;;;2.40;99.90;;;;;;4976608;28;20451;-81
2020/12/29 04:18:49;;;;;;;3.20;1.05;;;2.40;99.90;;;;;;4976544;28;20597;-81
2020/12/29 04:21:15;;;;;;;3.10;1.20;;;2.40;99.90;;;;;;4976532;28;20023;-82
2020/12/29 04:23:40;;;;;;;1.67;0.90;;;2.40;99.90;;;;;;4976408;28;20383;-83
2020/12/29 04:26:13;;;;;;;3.20;0.85;;;2.50;99.90;;;;;;4976565;28;20041;-83
2020/12/29 04:28:40;;;;;;;2.88;1.10;;;2.60;99.90;;;;;;4977421;28;20053;-81
2020/12/29 04:31:09;;;;;;;4.00;1.02;;;2.60;99.90;;;;;;4976339;28;20081;-82
2020/12/29 04:33:35;;;;;;;3.00;0.85;;;2.70;99.90;;;;;;4977493;28;20023;-83
2020/12/29 04:36:00;;;;;;;5.68;1.83;;;2.70;99.90;;;;;;4976243;28;20383;-82
2020/12/29 04:38:26;;;;;;;2.33;0.85;;;2.70;99.90;;;;;;4976193;28;20023;-84
2020/12/29 04:40:53;;;;;;;2.17;0.73;;;2.80;99.90;;;;;;4976140;28;20027;-83
2020/12/29 04:43:20;;;;;;;2.75;0.80;;;2.80;99.90;;;;;;4977632;28;20031;-82
2020/12/29 04:45:46;;;;;;;2.15;0.70;;;2.70;99.90;;;;;;4977380;28;20027;-82
2020/12/29 04:48:12;;;;;;;2.90;0.85;;;2.60;99.90;;;;;;4976015;28;20061;-83
2020/12/29 04:50:39;;;;;;;1.90;0.80;;;2.60;99.90;;;;;;4977229;28;20058;-80
2020/12/29 04:53:08;;;;;;;1.92;1.00;;;2.50;99.90;;;;;;4975920;28;20503;-80
2020/12/29 04:55:38;;;;;;;2.63;1.00;;;2.30;99.90;;;;;;4977061;28;20093;-81
2020/12/29 04:58:03;;;;;;;1.40;0.88;;;2.40;99.90;;;;;;4975861;28;20471;-81
2020/12/29 05:00:29;;;;;;;3.08;1.00;;;2.40;99.90;;;;;;4975761;28;20036;-83
2020/12/29 05:02:55;;;;;;;3.95;0.90;;;2.40;99.90;;;;;;4975751;28;20104;-84
2020/12/29 05:05:23;;;;;;;3.80;1.33;;;2.40;99.90;;;;;;4975627;28;20494;-82
2020/12/29 05:07:49;;;;;;;3.70;1.15;;;2.40;99.90;;;;;;4975293;28;20031;-82
2020/12/29 05:10:15;;;;;;;4.28;1.00;;;2.40;99.90;;;;;;4977111;28;20034;-81
2020/12/29 05:12:51;;;;;;;4.97;0.98;;;2.40;99.90;;;;;;4976797;28;20027;-82
2020/12/29 05:15:19;;;;;;;2.85;0.85;;;2.50;99.90;;;;;;4976683;28;20475;-83
2020/12/29 05:17:44;;;;;;;2.45;0.90;;;2.50;99.90;;;;;;4976715;28;20105;-84
2020/12/29 05:20:10;;;;;;;2.70;0.82;;;2.60;99.90;;;;;;4975454;28;20158;-84
2020/12/29 05:22:39;;;;;;;5.03;1.15;;;2.60;99.90;;;;;;4975306;28;20050;-82
2020/12/29 05:25:14;;;;;;;4.05;1.10;;;2.40;99.90;;;;;;4975341;28;20109;-82
2020/12/29 05:27:40;;;;;;;3.03;1.13;;;2.50;99.90;;;;;;4975197;28;20035;-82
2020/12/29 05:30:06;;;;;;;2.63;1.02;;;2.60;99.90;;;;;;4976797;28;20473;-82
2020/12/29 05:32:37;;;;;;;3.35;0.90;;;2.60;99.90;;;;;;4975256;28;20038;-82
2020/12/29 05:35:09;;;;;;;3.13;1.00;;;2.60;99.90;;;;;;4975084;28;20030;-84
2020/12/29 05:37:36;;;;;;;2.88;0.90;;;2.70;99.90;;;;;;4976455;28;20111;-82
2020/12/29 05:40:27;;;;;;;4.50;0.90;;;2.70;99.90;;;;;;4976337;28;20390;-83
2020/12/29 05:42:55;;;;;;;2.08;0.70;;;2.70;99.90;;;;;;4976313;28;20042;-82
2020/12/29 05:45:24;;;;;;;2.78;0.90;;;2.70;99.90;;;;;;4975000;28;20033;-82
2020/12/29 05:47:55;;;;;;;2.53;0.90;;;2.60;99.90;;;;;;4976192;28;20074;-82
2020/12/29 05:50:21;;;;;;;0.93;0.80;;;2.60;99.90;;;;;;4976229;28;20034;-81
2020/12/29 05:53:10;;;;;;;3.65;1.05;;;2.50;99.90;;;;;;4974833;28;20034;-82
2020/12/29 05:55:36;;;;;;;1.45;0.60;;;2.50;99.90;;;;;;4974724;28;20062;-84
2020/12/29 05:58:09;;;;;;;1.92;0.65;;;2.50;99.90;;;;;;4974720;28;20050;-84
2020/12/29 06:00:40;;;;;;;1.30;1.00;;;2.50;99.90;;;;;;4974665;28;20470;-85
2020/12/29 06:03:08;;;;;;;1.35;0.90;;;2.50;99.90;;;;;;4975860;28;20415;-83
2020/12/29 06:05:36;;;;;;;1.75;0.90;;;2.60;99.90;;;;;;4976101;28;20027;-83
2020/12/29 06:08:07;;;;;;;2.70;1.08;;;2.70;99.90;;;;;;4975794;28;20482;-86
2020/12/29 06:10:35;;;;;;;2.45;1.17;;;2.50;99.90;;;;;;4974433;28;20030;-84
2020/12/29 06:13:05;;;;;;;3.50;1.10;;;2.40;99.90;;;;;;4974360;28;20117;-84
2020/12/29 06:15:36;;;;;;;1.92;1.20;;;2.20;99.90;;;;;;4976099;28;20023;-83
2020/12/29 06:18:06;;;;;;;2.72;1.05;;;2.20;99.90;;;;;;4974166;28;20027;-83
2020/12/29 06:20:50;;;;;;;3.92;1.10;;;2.10;99.90;;;;;;4973862;28;20077;-84
2020/12/29 06:23:21;;;;;;;5.65;1.35;;;2.10;99.90;;;;;;4974174;28;20367;-84
2020/12/29 06:25:47;;;;;;;3.00;1.05;;;2.20;99.90;;;;;;4974215;28;20037;-84
2020/12/29 06:28:19;;;;;;;3.55;1.27;;;2.10;99.90;;;;;;4973905;28;20114;-82
2020/12/29 06:30:45;;;;;;;4.95;1.85;;;2.10;99.90;;;;;;4975322;28;20526;-83
2020/12/29 06:33:17;;;;;;;2.53;0.95;;;2.00;99.90;;;;;;4974023;28;20069;-85
2020/12/29 06:35:45;;;;;;;4.57;1.30;;;2.10;99.90;;;;;;4974008;28;20117;-83
2020/12/29 06:38:15;;;;;;;3.03;1.30;;;2.10;99.90;;;;;;4975554;28;20034;-83
2020/12/29 06:40:42;;;;;;;3.30;0.93;;;2.10;99.90;;;;;;4973975;28;20023;-83
2020/12/29 06:43:09;;;;;;;4.32;1.30;;;2.00;99.90;;;;;;4973897;28;20029;-83
2020/12/29 06:45:39;;;;;;;3.47;0.98;;;2.00;99.90;;;;;;4973887;28;20027;-82
2020/12/29 06:48:21;;;;;;;3.72;1.20;;;2.10;99.90;;;;;;4973914;28;20037;-83
2020/12/29 06:50:47;;;;;;;1.23;0.90;;;2.20;99.90;;;;;;4973856;28;20022;-84
2020/12/29 06:53:19;;;;;;;3.45;1.15;;;2.20;99.90;;;;;;4973770;28;20027;-88
2020/12/29 06:55:47;;;;;;;2.33;0.95;;;2.20;99.90;;;;;;4973651;28;20037;-83
2020/12/29 06:58:32;;;;;;;1.48;0.90;;;2.20;99.90;;;;;;4973650;28;20026;-83
2020/12/29 07:01:20;;;;;;;1.30;1.17;;;2.10;99.90;;;;;;4977347;28;20430;-83
2020/12/29 07:03:48;;;;;;;44.50;8.65;;;2.00;99.90;;;;;;4973663;28;20033;-84
2020/12/29 07:06:13;;;;;;;3.40;1.30;;;2.10;99.90;;;;;;4975165;28;20474;-83
2020/12/29 07:08:39;;;;;;;1.85;1.00;;;2.10;99.90;;;;;;4973684;28;20093;-84
2020/12/29 07:11:18;;;;;;;2.35;1.30;;;2.20;99.90;;;;;;4974851;28;20031;-85
2020/12/29 07:13:53;;;;;;;1.55;1.00;;;2.30;99.90;;;;;;4973520;28;20390;-85
2020/12/29 07:16:25;;;;;;;3.50;1.63;;;2.40;99.90;;;;;;4973646;28;20035;-86
2020/12/29 07:18:52;;;;;;;4.97;1.60;;;2.30;99.90;;;;;;4973849;28;20105;-84
2020/12/29 07:21:28;;;;;;;1.20;0.93;;;2.30;99.90;;;;;;4973453;28;20031;-84
2020/12/29 07:23:55;;;;;;;2.60;1.10;;;2.30;99.90;;;;;;4973420;28;20027;-85
2020/12/29 07:26:22;;;;;;;1.75;1.00;;;2.30;99.90;;;;;;4973458;28;20023;-85
2020/12/29 07:28:56;;;;;;;2.75;1.17;;;2.40;99.90;;;;;;4973331;28;20453;-84
2020/12/29 07:31:22;;;;;;;;;;;2.30;99.90;;;;;;4976875;28;20390;-84
2020/12/29 07:33:52;;;;;;;1.98;1.20;;;2.30;99.90;;;;;;4977391;28;19913;-84
2020/12/29 07:36:18;;;;;;;1.15;1.02;;;2.40;99.90;;;;;;4977376;28;20018;-85
2020/12/29 07:38:49;;;;;;;2.33;1.00;;;2.40;99.90;;;;;;4978607;28;20023;-83
2020/12/29 07:41:18;;;;;;;1.83;1.05;;;2.40;99.90;;;;;;4977270;28;20129;-85
2020/12/29 07:43:45;;;;;;;1.60;1.20;;;2.40;99.90;;;;;;4979284;28;20026;-85
2020/12/29 07:46:12;;;;;;;1.60;0.82;;;2.50;99.90;;;;;;4977895;28;20030;-83
2020/12/29 07:48:38;;;;;;;3.58;1.13;;;2.50;99.90;;;;;;4977191;28;20034;-83
2020/12/29 07:51:05;;;;;;;1.85;1.20;;;2.90;99.90;;;;;;4978328;28;20034;-83
2020/12/29 07:53:31;;;;;;;1.67;0.82;;;3.00;99.90;;;;;;4976955;28;20027;-83
2020/12/29 07:55:58;;;;;;;2.38;0.70;;;3.30;99.90;;;;;;4977024;28;20033;-83
2020/12/29 07:58:24;;;;;;;4.95;0.60;;;3.40;99.90;;;;;;4978221;28;20034;-84
2020/12/29 08:00:50;;;;;;;0.75;0.70;;;3.40;99.90;;;;;;4976872;28;20019;-83
2020/12/29 08:03:18;;;;;;;1.05;0.77;;;3.60;99.90;;;;;;4976826;28;20019;-83
2020/12/29 08:05:44;;;;;;;1.35;0.75;;;3.70;99.90;;;;;;4978115;28;20022;-84
2020/12/29 08:08:12;;;;;;;2.55;0.73;;;3.90;99.90;;;;;;4976780;28;20033;-84
2020/12/29 08:10:39;;;;;;;1.90;0.70;;;4.00;99.90;;;;;;4978006;28;20061;-84
2020/12/29 08:13:12;;;;;;;1.30;0.90;;;4.10;99.90;;;;;;4977941;28;20081;-84
2020/12/29 08:15:43;;;;;;;2.50;0.93;;;3.80;99.90;;;;;;4976566;28;20030;-84
2020/12/29 08:18:10;;;;;;;1.35;0.80;;;3.70;99.90;;;;;;4976633;28;20058;-83
2020/12/29 08:20:48;;;;;;;2.63;0.93;;;3.60;99.90;;;;;;4976632;28;20117;-83
2020/12/29 08:23:24;;;;;;;1.52;0.60;;;3.90;99.90;;;;;;4976447;28;20031;-84
2020/12/29 08:25:55;;;;;;;1.85;0.75;;;3.80;99.90;;;;;;4976523;28;20118;-83
2020/12/29 08:28:23;;;;;;;1.35;0.85;;;4.20;99.90;;;;;;4976336;28;20514;-84
2020/12/29 08:30:49;;;;;;;1.45;0.82;;;4.60;99.90;;;;;;4976429;28;20077;-85
2020/12/29 08:33:19;;;;;;;1.90;1.35;;;4.90;99.90;;;;;;4976255;28;20019;-85
2020/12/29 08:35:51;;;;;;;1.70;1.02;;;5.10;99.90;;;;;;4976163;28;20501;-84
2020/12/29 08:38:47;;;;;;;2.15;1.17;;;5.10;99.90;;;;;;4976218;28;20062;-81
2020/12/29 08:41:28;;;;;;;1.38;1.10;;;5.20;99.90;;;;;;4977523;28;20015;-81
2020/12/29 08:43:54;;;;;;;1.40;0.70;;;5.10;99.90;;;;;;4976032;28;20071;-85
2020/12/29 08:46:24;;;;;;;1.60;0.80;;;5.20;99.90;;;;;;4976049;28;20054;-85
2020/12/29 08:48:54;;;;;;;1.30;0.77;;;5.10;99.90;;;;;;4975918;28;20027;-85
2020/12/29 08:51:31;;;;;;;0.93;0.60;;;5.00;99.90;;;;;;4975978;28;20125;-85
2020/12/29 08:54:14;;;;;;;4.20;0.80;;;4.90;99.90;;;;;;4976019;28;20026;-85
2020/12/29 08:56:41;;;;;;;1.55;1.10;;;4.80;99.90;;;;;;4976411;28;20035;-85
2020/12/29 08:59:19;;;;;;;1.98;0.80;;;4.80;99.90;;;;;;4975794;28;20023;-84
2020/12/29 09:01:48;;;;;;;2.58;1.10;;;4.90;99.90;;;;;;4960155;28;20031;-82
2020/12/29 09:04:23;;;;;;;1.50;0.70;;;5.00;99.90;;;;;;4977712;28;20019;-85
2020/12/29 09:07:04;;;;;;;3.22;1.10;;;5.00;99.90;;;;;;4977076;28;20109;-84
2020/12/29 09:09:32;;;;;;;3.33;2.10;;;4.90;99.90;;;;;;4975785;28;20147;-84
2020/12/29 09:12:09;;;;;;;1.85;0.95;;;4.70;99.90;;;;;;4976027;28;20122;-84
2020/12/29 09:14:36;;;;;;;3.53;2.58;;;4.80;99.90;;;;;;4976504;28;20035;-87
2020/12/29 09:17:06;;;;;;;1.35;1.20;;;4.70;99.90;;;;;;4976672;28;20049;-86
2020/12/29 09:19:34;;;;;;;3.75;1.42;;;4.80;99.90;;;;;;4977303;28;20019;-86
2020/12/29 09:22:26;;;;;;;2.22;1.27;;;4.80;99.90;;;;;;4975558;28;20478;-86
2020/12/29 09:24:51;;;;;;;1.38;1.00;;;4.90;99.90;;;;;;4972189;28;20039;-85
2020/12/29 09:27:31;;;;;;;3.08;0.98;;;4.90;99.90;;;;;;4977329;28;20031;-86
2020/12/29 09:29:58;;;;;;;1.80;1.00;;;4.70;99.90;;;;;;4975540;28;20120;-84
2020/12/29 09:32:24;;;;;;;1.27;0.98;;;4.50;99.90;;;;;;4976934;28;20030;-86
2020/12/29 09:34:51;;;;;;;1.10;1.00;;;4.30;99.90;;;;;;4976639;28;20106;-85
2020/12/29 09:37:19;;;;;;;1.23;0.82;;;4.30;99.90;;;;;;4976993;28;20027;-85
2020/12/29 09:39:46;;;;;;;1.00;0.90;;;4.40;99.90;;;;;;4975512;28;20067;-84
2020/12/29 09:42:12;;;;;;;1.83;1.00;;;4.30;99.90;;;;;;4975526;28;20114;-83
2020/12/29 09:44:39;;;;;;;2.20;1.30;;;4.30;99.90;;;;;;4975024;28;20177;-82
2020/12/29 09:47:05;;;;;;;1.38;0.82;;;4.20;99.90;;;;;;4974998;28;20067;-81
2020/12/29 09:49:30;;;;;;;1.25;0.80;;;4.10;99.90;;;;;;4974993;28;20124;-81
2020/12/29 09:51:56;;;;;;;1.02;0.73;;;4.10;99.90;;;;;;4974838;28;20027;-81
2020/12/29 09:54:22;;;;;;;2.15;1.10;;;4.10;99.90;;;;;;4974043;28;20158;-81
2020/12/29 09:56:48;;;;;;;3.53;1.50;;;4.30;99.90;;;;;;4977119;28;20054;-81
2020/12/29 09:59:13;;;;;;;2.88;1.58;;;4.30;99.90;;;;;;4974599;28;20030;-81
2020/12/29 10:01:39;;;;;;;1.38;0.90;;;4.20;99.90;;;;;;4976181;28;20073;-81
2020/12/29 10:04:05;;;;;;;1.73;0.80;;;4.10;99.90;;;;;;4974606;28;20109;-81
2020/12/29 10:06:31;;;;;;;1.35;1.00;;;4.10;99.90;;;;;;4975842;28;20030;-81
2020/12/29 10:08:56;;;;;;;3.35;1.50;;;4.10;99.90;;;;;;4974662;28;20390;-81
2020/12/29 10:11:24;;;;;;;1.60;0.90;;;4.20;99.90;;;;;;4975675;28;20033;-81
2020/12/29 10:13:50;;;;;;;1.48;0.80;;;4.30;99.90;;;;;;4975635;28;20081;-80
2020/12/29 10:16:16;;;;;;;0.80;0.70;;;4.30;99.90;;;;;;4975570;28;20027;-80
2020/12/29 10:18:41;;;;;;;0.75;0.70;;;4.40;99.90;;;;;;4975061;28;20022;-80
2020/12/29 10:21:07;;;;;;;12.90;2.95;;;4.40;99.90;;;;;;4974100;28;20031;-80
2020/12/29 10:23:32;;;;;;;4.38;1.35;;;4.60;99.90;;;;;;4974956;28;20034;-81
2020/12/29 10:25:58;;;;;;;2.95;0.93;;;5.00;99.90;;;;;;4974055;28;20031;-80
2020/12/29 10:28:24;;;;;;;2.45;1.20;;;4.70;99.90;;;;;;4973976;28;20403;-80
2020/12/29 10:30:49;;;;;;;1.85;0.98;;;4.80;99.90;;;;;;4974413;28;20019;-80
2020/12/29 10:33:15;;;;;;;1.10;0.77;;;4.70;99.90;;;;;;4974053;28;20019;-80
2020/12/29 10:35:41;;;;;;;0.93;0.60;;;4.80;99.90;;;;;;4975537;28;20119;-80
2020/12/29 10:38:08;;;;;;;1.45;1.00;;;4.70;99.90;;;;;;4973800;28;20027;-79
2020/12/29 10:40:34;;;;;;;0.68;0.68;;;4.80;99.90;;;;;;4975093;28;20023;-80
2020/12/29 10:43:00;;;;;;;1.05;0.70;;;4.90;99.90;;;;;;4973859;28;20033;-80
2020/12/29 10:45:25;;;;;;;1.77;0.90;;;5.10;99.90;;;;;;4975346;28;20027;-81
2020/12/29 10:47:51;;;;;;;1.80;0.90;;;5.00;99.90;;;;;;4973793;28;20022;-81
2020/12/29 10:50:17;;;;;;;2.45;0.90;;;4.90;99.90;;;;;;4973852;28;20061;-81
2020/12/29 10:52:43;;;;;;;0.90;0.65;;;5.20;99.90;;;;;;4975186;28;20533;-79
2020/12/29 10:55:08;;;;;;;0.82;0.55;;;5.10;99.90;;;;;;4974592;28;20490;-81
2020/12/29 10:57:34;;;;;;;1.35;0.77;;;5.40;99.90;;;;;;4975355;28;20015;-74
2020/12/29 11:00:00;;;;;;;1.20;0.65;;;5.30;99.90;;;;;;4975213;28;20090;-76
2020/12/29 11:02:25;;;;;;;1.02;0.70;;;5.20;99.90;;;;;;4975215;28;20019;-76
2020/12/29 11:04:51;;;;;;;1.25;0.70;;;5.00;99.90;;;;;;4974868;28;20076;-75
2020/12/29 11:07:16;;;;;;;0.80;0.63;;;5.00;99.90;;;;;;4973612;28;20121;-76
2020/12/29 11:09:42;;;;;;;1.13;0.70;;;5.10;99.90;;;;;;4974743;28;20030;-76
2020/12/29 11:12:08;;;;;;;0.90;0.60;;;5.20;99.90;;;;;;4974848;28;20031;-77
2020/12/29 11:14:33;;;;;;;0.90;0.50;;;5.50;99.90;;;;;;4974799;28;20029;-76
2020/12/29 11:17:00;;;;;;;0.85;0.60;;;5.70;99.90;;;;;;4973592;28;20050;-76
2020/12/29 11:19:26;;;;;;;0.82;0.60;;;5.70;99.90;;;;;;4974774;28;20019;-76
2020/12/29 11:21:51;;;;;;;1.10;0.77;;;5.70;99.90;;;;;;4974777;28;20098;-74
2020/12/29 11:24:17;;;;;;;1.73;0.60;;;5.80;99.90;;;;;;4973293;28;20026;-76
2020/12/29 11:26:44;;;;;;;0.82;0.68;;;6.10;99.90;;;;;;4974641;28;20172;-76
2020/12/29 11:29:10;;;;;;;1.17;0.77;;;6.20;99.90;;;;;;4974284;28;20409;-76
2020/12/29 11:31:35;;;;;;;1.98;0.90;;;6.30;99.90;;;;;;4974756;28;20085;-76
2020/12/29 11:34:01;;;;;;;1.40;1.02;;;6.50;99.90;;;;;;4974455;28;20027;-76
2020/12/29 11:36:27;;;;;;;1.65;0.90;;;6.50;99.90;;;;;;4974703;28;20364;-76
2020/12/29 11:38:52;;;;;;;1.38;0.85;;;6.40;99.90;;;;;;4974576;28;20026;-76
2020/12/29 11:41:18;;;;;;;0.82;0.60;;;6.20;99.90;;;;;;4974415;28;20027;-76
2020/12/29 11:43:44;;;;;;;1.20;0.60;;;6.40;99.90;;;;;;4974452;28;20030;-76
2020/12/29 11:46:10;;;;;;;0.98;0.68;;;6.30;99.90;;;;;;4974430;28;20050;-76
2020/12/29 11:48:36;;;;;;;1.13;0.75;;;6.30;99.90;;;;;;4975654;28;20035;-84
2020/12/29 11:51:04;;;;;;;1.27;0.60;;;6.40;99.90;;;;;;4974626;28;20467;-84
2020/12/29 11:53:29;;;;;;;1.48;0.70;;;6.40;99.90;;;;;;4973564;28;20026;-84
2020/12/29 11:55:56;;;;;;;3.10;0.80;;;6.50;99.90;;;;;;4974720;28;20035;-83
2020/12/29 11:58:21;;;;;;;3.58;0.90;;;6.20;99.90;;;;;;4975338;28;20050;-83
2020/12/29 12:00:47;;;;;;;1.45;0.90;;;6.30;99.90;;;;;;4973552;28;20045;-84
2020/12/29 12:03:13;;;;;;;0.90;0.60;;;6.20;99.90;;;;;;4974244;28;20023;-83
2020/12/29 12:05:38;;;;;;;2.35;0.90;;;6.10;99.90;;;;;;4974024;28;20223;-83
2020/12/29 12:08:04;;;;;;;1.25;0.80;;;6.30;99.90;;;;;;4973760;28;20467;-83
2020/12/29 12:10:30;;;;;;;4.50;1.08;;;6.20;99.90;;;;;;4974003;28;20042;-84
2020/12/29 12:12:56;;;;;;;1.98;0.70;;;6.10;99.90;;;;;;4973151;28;20030;-82
2020/12/29 12:15:21;;;;;;;1.65;0.80;;;6.10;99.90;;;;;;4973044;28;20037;-83
2020/12/29 12:17:47;;;;;;;3.05;1.10;;;6.20;99.90;;;;;;4974875;28;20426;-83
2020/12/29 12:20:13;;;;;;;1.88;1.20;;;6.10;99.90;;;;;;4976693;28;20454;-84
2020/12/29 12:22:38;;;;;;;1.63;1.00;;;6.10;99.90;;;;;;4976886;28;20023;-83
2020/12/29 12:25:04;;;;;;;3.45;1.48;;;6.10;99.90;;;;;;4978405;28;20049;-83
2020/12/29 12:27:30;;;;;;;3.05;1.48;;;6.20;99.90;;;;;;4979831;28;20494;-83
2020/12/29 12:29:56;;;;;;;13.85;6.95;;;6.60;99.90;;;;;;4976430;28;20137;-83
2020/12/29 12:32:21;;;;;;;3.40;1.80;;;7.20;99.90;;;;;;4978524;28;20031;-83
2020/12/29 12:34:47;;;;;;;11.77;6.00;;;8.40;99.90;;;;;;4976643;28;20062;-84
2020/12/29 12:37:13;;;;;;;9.50;5.10;;;10.20;99.90;;;;;;4976515;28;20034;-85
2020/12/29 12:39:40;;;;;;;3.85;1.67;;;11.30;99.90;;;;;;4980775;28;20050;-80
2020/12/29 12:42:08;;;;;;;3.63;1.52;;;10.90;99.90;;;;;;4976304;28;20030;-83
2020/12/29 12:44:35;;;;;;;1.98;0.90;;;10.10;99.90;;;;;;4976060;28;20031;-83
2020/12/29 12:47:00;;;;;;;1.58;0.90;;;10.10;99.90;;;;;;4976325;28;20387;-83
2020/12/29 12:49:26;;;;;;;2.67;1.00;;;9.70;99.90;;;;;;4977962;28;20030;-83
2020/12/29 12:51:52;;;;;;;1.92;0.90;;;9.50;99.90;;;;;;4976289;28;20027;-83
2020/12/29 12:54:18;;;;;;;4.32;1.35;;;9.40;99.90;;;;;;4977638;28;20027;-82
2020/12/29 12:56:49;;;;;;;3.05;1.10;;;9.20;99.90;;;;;;4976420;28;20118;-83
2020/12/29 12:59:15;;;;;;;2.72;1.25;;;9.30;99.90;;;;;;4960688;28;20122;-82